Time;durP1;ratioP1;P1;durP2;ratioP2;P2;SDS_P1;SDS_P2;PMS_P1;PMS_P2;Temp;Humidity;BMP_temperature;BMP_pressure;BME280_temperature;BME280_humidity;BME280_pressure;Samples;Min_cycle;Max_cycle;Signal;HPM_P1;HPM_P2
2023/09/12 00:00:49;;;;;;;17.20;10.27;;;21.60;72.70;;;;;;5009726;28;20419;-71
2023/09/12 00:03:22;;;;;;;18.13;10.07;;;21.60;73.00;;;;;;5008196;28;20284;-71
2023/09/12 00:05:54;;;;;;;15.03;10.30;;;21.60;73.00;;;;;;5010064;28;20278;-73
2023/09/12 00:08:20;;;;;;;17.00;10.03;;;21.60;73.00;;;;;;5010147;28;20437;-71
2023/09/12 00:10:46;;;;;;;19.57;10.63;;;21.50;73.30;;;;;;5013318;28;20436;-72
2023/09/12 00:13:12;;;;;;;19.90;11.20;;;21.50;73.00;;;;;;5013407;28;20478;-72
2023/09/12 00:15:38;;;;;;;13.80;9.83;;;21.40;73.30;;;;;;5008179;28;20217;-69
2023/09/12 00:18:04;;;;;;;22.40;9.80;;;21.40;73.50;;;;;;5008607;28;21031;-72
2023/09/12 00:20:29;;;;;;;18.47;10.30;;;21.30;73.60;;;;;;5011933;28;20293;-72
2023/09/12 00:22:56;;;;;;;14.67;9.53;;;21.30;73.60;;;;;;5012987;28;20430;-70
2023/09/12 00:25:21;;;;;;;17.73;9.77;;;21.30;73.70;;;;;;5006401;28;20300;-71
2023/09/12 00:27:47;;;;;;;17.23;10.10;;;21.30;73.90;;;;;;5014843;28;20478;-72
2023/09/12 00:30:14;;;;;;;19.50;9.67;;;21.40;73.70;;;;;;5013172;28;20187;-72
2023/09/12 00:32:40;;;;;;;22.33;10.57;;;21.30;73.70;;;;;;5015245;28;20559;-72
2023/09/12 00:35:06;;;;;;;21.00;10.80;;;21.30;73.90;;;;;;5010591;28;20578;-73
2023/09/12 00:37:31;;;;;;;17.77;9.80;;;21.30;74.00;;;;;;5012480;28;20193;-71
2023/09/12 00:39:57;;;;;;;20.50;11.53;;;21.30;73.70;;;;;;5014432;28;20192;-71
2023/09/12 00:42:26;;;;;;;19.23;9.80;;;21.20;74.00;;;;;;5018451;28;20194;-72
2023/09/12 00:44:51;;;;;;;28.50;12.10;;;21.20;74.20;;;;;;5005001;28;20212;-71
2023/09/12 00:47:18;;;;;;;16.83;10.63;;;21.20;74.00;;;;;;5014821;28;20428;-72
2023/09/12 00:49:45;;;;;;;21.43;10.97;;;21.20;74.20;;;;;;5015351;28;20189;-71
2023/09/12 00:52:12;;;;;;;19.93;11.50;;;21.10;74.60;;;;;;5011917;28;20432;-72
2023/09/12 00:54:40;;;;;;;21.53;10.90;;;21.10;74.80;;;;;;5008393;28;20425;-68
2023/09/12 00:57:06;;;;;;;17.17;10.80;;;21.10;74.50;;;;;;5022357;28;20489;-72
2023/09/12 00:59:32;;;;;;;17.30;10.83;;;21.10;74.60;;;;;;5009974;28;20450;-72
2023/09/12 01:01:59;;;;;;;20.40;11.87;;;21.10;74.80;;;;;;5002774;28;21298;-73
2023/09/12 01:04:25;;;;;;;17.03;11.07;;;20.90;74.80;;;;;;5007441;28;20184;-72
2023/09/12 01:06:51;;;;;;;19.23;11.10;;;20.80;75.50;;;;;;5008139;28;20828;-71
2023/09/12 01:09:17;;;;;;;19.40;11.57;;;20.70;75.80;;;;;;5016882;28;20193;-72
2023/09/12 01:11:43;;;;;;;20.90;11.87;;;20.60;76.20;;;;;;5024748;28;20473;-72
2023/09/12 01:14:08;;;;;;;25.53;11.50;;;20.60;76.50;;;;;;5020306;28;20285;-71
2023/09/12 01:16:34;;;;;;;19.90;11.73;;;20.60;76.40;;;;;;5003356;28;20224;-70
2023/09/12 01:18:59;;;;;;;18.43;10.73;;;20.60;76.50;;;;;;5011658;28;20191;-72
2023/09/12 01:21:28;;;;;;;14.63;10.10;;;20.60;76.50;;;;;;5011276;28;20661;-72
2023/09/12 01:24:12;;;;;;;17.93;11.43;;;20.60;76.70;;;;;;5010858;28;20273;-71
2023/09/12 01:26:40;;;;;;;17.90;11.27;;;20.60;76.80;;;;;;5003805;28;20529;-73
2023/09/12 01:29:07;;;;;;;22.40;12.17;;;20.60;76.70;;;;;;5010592;28;20436;-72
2023/09/12 01:31:37;;;;;;;17.80;11.00;;;20.50;76.70;;;;;;5010251;28;20434;-72
2023/09/12 01:34:12;;;;;;;15.53;10.47;;;20.50;76.80;;;;;;5013286;28;20436;-70
2023/09/12 01:36:38;;;;;;;21.07;11.37;;;20.50;76.80;;;;;;5006574;28;20497;-72
2023/09/12 01:39:04;;;;;;;17.57;10.60;;;20.60;76.80;;;;;;5008178;28;20431;-70
2023/09/12 01:41:34;;;;;;;17.90;10.63;;;20.60;76.50;;;;;;5010337;28;20188;-71
2023/09/12 01:44:01;;;;;;;14.20;10.60;;;20.60;76.40;;;;;;5003534;28;20668;-70
2023/09/12 01:46:27;;;;;;;23.73;11.33;;;20.60;76.50;;;;;;5004972;28;20558;-71
2023/09/12 01:48:55;;;;;;;17.80;10.80;;;20.50;76.70;;;;;;5003364;28;21006;-71
2023/09/12 01:51:22;;;;;;;18.27;11.87;;;20.60;76.50;;;;;;5008235;28;20191;-72
2023/09/12 01:53:49;;;;;;;21.27;12.57;;;20.60;76.50;;;;;;5005933;28;20414;-71
2023/09/12 01:56:15;;;;;;;25.83;12.20;;;20.50;76.50;;;;;;5003582;28;20565;-72
2023/09/12 01:58:41;;;;;;;23.87;11.87;;;20.60;76.50;;;;;;5003910;28;20872;-71
2023/09/12 02:01:06;;;;;;;18.13;11.53;;;20.50;76.40;;;;;;5010901;28;20290;-72
2023/09/12 02:03:32;;;;;;;22.80;11.73;;;20.30;77.00;;;;;;5004190;28;20540;-70
2023/09/12 02:05:57;;;;;;;21.67;12.80;;;20.10;77.70;;;;;;5003296;28;20292;-70
2023/09/12 02:08:23;;;;;;;21.03;12.17;;;20.00;78.30;;;;;;5003509;28;20671;-71
2023/09/12 02:10:49;;;;;;;22.63;11.57;;;20.00;78.40;;;;;;5010481;28;20217;-71
2023/09/12 02:13:14;;;;;;;26.97;12.50;;;20.00;78.10;;;;;;5010074;28;20228;-71
2023/09/12 02:15:40;;;;;;;21.53;11.93;;;20.00;77.70;;;;;;5002162;28;20290;-72
2023/09/12 02:18:05;;;;;;;17.70;10.57;;;20.10;77.40;;;;;;5009349;28;20183;-72
2023/09/12 02:20:32;;;;;;;21.73;12.40;;;20.10;77.30;;;;;;5009830;28;20201;-72
2023/09/12 02:22:57;;;;;;;23.43;12.70;;;20.10;77.40;;;;;;5007654;28;20179;-71
2023/09/12 02:25:23;;;;;;;20.33;10.60;;;20.10;77.60;;;;;;5001728;28;20927;-72
2023/09/12 02:27:49;;;;;;;34.57;11.40;;;20.10;77.40;;;;;;5007692;28;20186;-70
2023/09/12 02:30:14;;;;;;;14.40;9.80;;;20.10;77.70;;;;;;5008218;28;20191;-70
2023/09/12 02:32:42;;;;;;;18.00;12.20;;;20.10;77.60;;;;;;5007221;28;20202;-71
2023/09/12 02:35:08;;;;;;;16.83;11.20;;;20.10;77.60;;;;;;5004472;28;20207;-71
2023/09/12 02:37:33;;;;;;;16.03;10.63;;;20.10;77.60;;;;;;5002151;28;20444;-71
2023/09/12 02:39:59;;;;;;;18.80;12.13;;;20.20;77.40;;;;;;5001352;28;20287;-70
2023/09/12 02:42:25;;;;;;;18.40;10.83;;;20.10;77.40;;;;;;5003148;28;20288;-71
2023/09/12 02:44:52;;;;;;;16.43;10.50;;;20.10;77.40;;;;;;5003150;28;20200;-70
2023/09/12 02:47:18;;;;;;;18.40;11.17;;;20.10;77.60;;;;;;5004691;28;20427;-71
2023/09/12 02:49:43;;;;;;;20.67;10.90;;;20.10;77.60;;;;;;5006267;28;20426;-72
2023/09/12 02:52:09;;;;;;;19.60;11.10;;;20.20;77.40;;;;;;5008081;28;20636;-72
2023/09/12 02:54:34;;;;;;;15.53;11.17;;;20.10;77.30;;;;;;5005097;28;20206;-70
2023/09/12 02:57:00;;;;;;;20.00;10.93;;;20.10;77.70;;;;;;5006095;28;20230;-72
2023/09/12 02:59:25;;;;;;;14.77;10.50;;;20.10;77.70;;;;;;5008159;28;20187;-71
2023/09/12 03:01:51;;;;;;;17.87;11.83;;;20.20;77.60;;;;;;5008992;28;20209;-71
2023/09/12 03:04:17;;;;;;;20.70;11.33;;;20.20;77.30;;;;;;5005488;28;20214;-71
2023/09/12 03:06:43;;;;;;;17.07;10.30;;;20.20;77.10;;;;;;5008143;28;20211;-71
2023/09/12 03:09:11;;;;;;;19.47;11.00;;;20.20;77.00;;;;;;5012830;28;20188;-71
2023/09/12 03:11:36;;;;;;;24.57;12.03;;;20.10;77.10;;;;;;5014851;28;20434;-71
2023/09/12 03:14:02;;;;;;;18.60;11.70;;;20.10;77.00;;;;;;5017273;28;20487;-71
2023/09/12 03:16:28;;;;;;;19.40;12.07;;;20.10;76.70;;;;;;5012469;28;20218;-71
2023/09/12 03:18:54;;;;;;;21.87;11.60;;;20.00;77.10;;;;;;5015242;28;20940;-71
2023/09/12 03:21:19;;;;;;;23.10;13.43;;;19.90;77.40;;;;;;5012803;28;20199;-70
2023/09/12 03:23:45;;;;;;;21.10;11.80;;;19.80;77.70;;;;;;5014482;28;20186;-70
2023/09/12 03:26:10;;;;;;;19.87;11.80;;;19.70;78.10;;;;;;5007746;28;20243;-71
2023/09/12 03:28:36;;;;;;;22.30;11.63;;;19.70;78.30;;;;;;5013328;28;20178;-71
2023/09/12 03:31:11;;;;;;;23.20;13.47;;;19.70;78.30;;;;;;5007417;28;20197;-70
2023/09/12 03:33:37;;;;;;;22.30;12.47;;;19.60;78.40;;;;;;5020440;28;20605;-71
2023/09/12 03:36:03;;;;;;;21.00;11.27;;;19.60;78.60;;;;;;5007451;28;20509;-70
2023/09/12 03:38:29;;;;;;;21.07;12.13;;;19.70;78.60;;;;;;5009576;28;20460;-70
2023/09/12 03:40:55;;;;;;;20.97;11.87;;;19.70;78.60;;;;;;5012572;28;20938;-72
2023/09/12 03:43:20;;;;;;;24.57;12.20;;;19.70;78.60;;;;;;5005571;28;20727;-71
2023/09/12 03:45:46;;;;;;;17.67;11.90;;;19.70;78.60;;;;;;4997829;28;20208;-72
2023/09/12 03:48:11;;;;;;;19.80;11.60;;;19.70;78.60;;;;;;5004052;28;20183;-70
2023/09/12 03:50:37;;;;;;;16.87;11.53;;;19.60;78.60;;;;;;5007010;28;20241;-73
2023/09/12 03:53:02;;;;;;;20.30;11.13;;;19.70;78.70;;;;;;5007143;28;20207;-72
2023/09/12 03:55:28;;;;;;;21.70;12.20;;;19.70;78.70;;;;;;4996316;28;20925;-72
2023/09/12 03:57:54;;;;;;;20.37;11.80;;;19.70;78.70;;;;;;5003500;28;20236;-70
2023/09/12 04:00:19;;;;;;;28.53;13.00;;;19.70;78.60;;;;;;5002289;28;20616;-71
2023/09/12 04:02:45;;;;;;;21.00;12.50;;;19.60;78.60;;;;;;5001628;28;20621;-71
2023/09/12 04:05:10;;;;;;;21.90;12.83;;;19.60;78.60;;;;;;5000587;28;20715;-72
2023/09/12 04:07:36;;;;;;;24.23;12.70;;;19.50;78.60;;;;;;5001907;28;20532;-71
2023/09/12 04:10:02;;;;;;;19.30;12.37;;;19.50;78.70;;;;;;5009275;28;20210;-72
2023/09/12 04:12:27;;;;;;;21.27;12.03;;;19.50;78.90;;;;;;5009183;28;20186;-72
2023/09/12 04:14:54;;;;;;;24.70;12.37;;;19.40;79.00;;;;;;5004759;28;20463;-72
2023/09/12 04:17:20;;;;;;;21.23;11.60;;;19.40;79.00;;;;;;5008747;28;20194;-72
2023/09/12 04:19:46;;;;;;;27.40;13.13;;;19.50;79.00;;;;;;5012997;28;20435;-72
2023/09/12 04:22:11;;;;;;;20.47;12.37;;;19.50;78.90;;;;;;5013919;28;20266;-71
2023/09/12 04:24:37;;;;;;;21.90;11.40;;;19.50;79.00;;;;;;5006027;28;20998;-71
2023/09/12 04:27:03;;;;;;;20.03;11.37;;;19.50;79.00;;;;;;5006185;28;20779;-72
2023/09/12 04:29:29;;;;;;;22.03;12.60;;;19.50;78.90;;;;;;5013414;28;20190;-72
2023/09/12 04:31:59;;;;;;;24.10;11.90;;;19.50;78.70;;;;;;5015285;28;20449;-71
2023/09/12 04:34:25;;;;;;;21.07;11.93;;;19.60;78.60;;;;;;5019273;28;20201;-71
2023/09/12 04:36:51;;;;;;;21.40;12.47;;;19.50;78.60;;;;;;5017809;28;20487;-71
2023/09/12 04:39:18;;;;;;;18.60;11.20;;;19.50;78.90;;;;;;5019309;28;20425;-70
2023/09/12 04:41:43;;;;;;;18.10;10.87;;;19.50;78.90;;;;;;5016453;28;20494;-71
2023/09/12 04:44:11;;;;;;;18.77;11.93;;;19.50;79.20;;;;;;5016272;28;20812;-71
2023/09/12 04:46:37;;;;;;;22.20;12.20;;;19.50;79.20;;;;;;5006609;28;20362;-71
2023/09/12 04:49:03;;;;;;;24.80;11.60;;;19.50;79.20;;;;;;5012399;28;20482;-72
2023/09/12 04:51:29;;;;;;;22.03;11.53;;;19.60;79.00;;;;;;5009203;28;20559;-72
2023/09/12 04:53:55;;;;;;;21.53;11.67;;;19.60;78.90;;;;;;5008852;28;20441;-72
2023/09/12 04:56:20;;;;;;;21.40;12.70;;;19.60;78.60;;;;;;5007439;28;20476;-71
2023/09/12 04:58:46;;;;;;;18.70;11.97;;;19.60;78.70;;;;;;5011217;28;20733;-71
2023/09/12 05:01:11;;;;;;;19.27;12.23;;;19.60;78.70;;;;;;5015734;28;20540;-70
2023/09/12 05:03:37;;;;;;;20.23;11.50;;;19.60;78.70;;;;;;5015567;28;20358;-70
2023/09/12 05:06:03;;;;;;;21.20;11.53;;;19.60;78.40;;;;;;5014854;28;20221;-71
2023/09/12 05:08:29;;;;;;;22.73;11.80;;;19.70;78.00;;;;;;5009671;28;20269;-71
2023/09/12 05:10:55;;;;;;;22.23;12.67;;;19.70;78.00;;;;;;5007985;28;20180;-71
2023/09/12 05:13:20;;;;;;;19.87;11.67;;;19.60;78.00;;;;;;5010091;28;20444;-71
2023/09/12 05:15:47;;;;;;;19.80;12.47;;;19.60;78.10;;;;;;5006644;28;20256;-69
2023/09/12 05:18:12;;;;;;;19.83;12.03;;;19.60;78.30;;;;;;5000883;28;20180;-70
2023/09/12 05:20:38;;;;;;;18.50;11.70;;;19.60;78.30;;;;;;5010654;28;20519;-70
2023/09/12 05:23:04;;;;;;;19.20;12.50;;;19.60;78.30;;;;;;5004469;28;20195;-70
2023/09/12 05:25:30;;;;;;;21.07;12.60;;;19.60;78.40;;;;;;5007747;28;20679;-70
2023/09/12 05:27:55;;;;;;;26.03;12.97;;;19.70;78.30;;;;;;5005599;28;20653;-72
2023/09/12 05:30:21;;;;;;;22.60;12.57;;;19.80;78.10;;;;;;5011657;28;20555;-69
2023/09/12 05:32:47;;;;;;;24.23;12.50;;;19.90;77.80;;;;;;5004796;28;20556;-70
2023/09/12 05:35:12;;;;;;;24.10;12.30;;;19.90;77.70;;;;;;5008154;28;20213;-69
2023/09/12 05:37:38;;;;;;;17.27;11.63;;;20.00;77.60;;;;;;5009178;28;20267;-69
2023/09/12 05:40:04;;;;;;;16.50;11.33;;;20.10;77.30;;;;;;5010463;28;20191;-71
2023/09/12 05:42:30;;;;;;;18.30;11.60;;;20.10;77.00;;;;;;5010195;28;20201;-72
2023/09/12 05:44:56;;;;;;;25.27;13.70;;;20.20;76.70;;;;;;5004836;28;21068;-70
2023/09/12 05:47:22;;;;;;;28.40;12.13;;;20.20;76.70;;;;;;5004509;28;20582;-69
2023/09/12 05:49:48;;;;;;;24.33;13.27;;;20.20;76.20;;;;;;5008645;28;20526;-69
2023/09/12 05:52:14;;;;;;;23.20;13.20;;;20.30;75.90;;;;;;5006009;28;20668;-71
2023/09/12 05:54:40;;;;;;;23.47;12.70;;;20.40;75.70;;;;;;5007755;28;20197;-69
2023/09/12 05:57:07;;;;;;;25.80;12.97;;;20.50;75.80;;;;;;5002352;28;20483;-71
2023/09/12 05:59:35;;;;;;;20.83;12.30;;;20.60;75.40;;;;;;5011350;28;20462;-70
2023/09/12 06:02:01;;;;;;;27.63;12.43;;;20.70;75.20;;;;;;5011631;28;20833;-71
2023/09/12 06:04:27;;;;;;;22.63;12.80;;;20.90;73.90;;;;;;5010179;28;20463;-70
2023/09/12 06:06:52;;;;;;;15.70;11.40;;;20.90;73.50;;;;;;5007914;28;20194;-69
2023/09/12 06:09:18;;;;;;;32.77;13.63;;;20.90;73.90;;;;;;5009852;28;20188;-72
2023/09/12 06:11:44;;;;;;;18.37;12.90;;;20.90;73.70;;;;;;5005504;28;20192;-71
2023/09/12 06:14:09;;;;;;;22.13;13.20;;;21.10;73.30;;;;;;5011249;28;20192;-70
2023/09/12 06:16:35;;;;;;;23.40;14.73;;;21.20;73.50;;;;;;5006900;28;20226;-70
2023/09/12 06:19:00;;;;;;;19.17;12.33;;;21.20;73.00;;;;;;5012280;28;20192;-70
2023/09/12 06:21:26;;;;;;;22.77;13.30;;;21.30;73.00;;;;;;5011395;28;20668;-70
2023/09/12 06:24:10;;;;;;;23.90;13.30;;;21.40;72.90;;;;;;5011069;28;20654;-70
2023/09/12 06:26:35;;;;;;;22.33;12.43;;;21.50;72.40;;;;;;5001636;28;20229;-70
2023/09/12 06:29:02;;;;;;;19.80;12.00;;;21.40;72.70;;;;;;5012600;28;21010;-70
2023/09/12 06:31:28;;;;;;;25.63;14.20;;;21.60;72.40;;;;;;5011313;28;20188;-71
2023/09/12 06:33:53;;;;;;;22.53;14.03;;;21.60;72.40;;;;;;5013358;28;20527;-71
2023/09/12 06:36:19;;;;;;;30.33;15.30;;;21.50;73.20;;;;;;5010613;28;20535;-70
2023/09/12 06:38:45;;;;;;;24.17;13.33;;;21.40;73.50;;;;;;5015738;28;20180;-71
2023/09/12 06:41:11;;;;;;;24.07;13.53;;;21.40;73.90;;;;;;5009625;28;20636;-72
2023/09/12 06:43:36;;;;;;;20.57;13.77;;;21.30;74.20;;;;;;5010737;28;20204;-69
2023/09/12 06:46:02;;;;;;;22.73;14.33;;;21.10;74.30;;;;;;5003116;28;20581;-71
2023/09/12 06:48:27;;;;;;;33.43;13.80;;;20.90;74.90;;;;;;5007689;28;20731;-70
2023/09/12 06:50:54;;;;;;;23.37;13.60;;;21.00;74.80;;;;;;5012406;28;20279;-69
2023/09/12 06:53:20;;;;;;;24.50;13.20;;;21.00;74.50;;;;;;5007158;28;20204;-71
2023/09/12 06:55:46;;;;;;;23.63;13.90;;;21.10;74.60;;;;;;5000519;28;20511;-71
2023/09/12 06:58:12;;;;;;;19.90;12.87;;;21.40;74.20;;;;;;5006100;28;20195;-70
2023/09/12 07:00:37;;;;;;;26.80;14.40;;;21.60;73.60;;;;;;5006740;28;20248;-72
2023/09/12 07:03:03;;;;;;;19.40;12.93;;;21.70;72.60;;;;;;5010461;28;20436;-70
2023/09/12 07:05:29;;;;;;;25.33;15.00;;;21.70;72.30;;;;;;4999482;28;20224;-70
2023/09/12 07:07:54;;;;;;;25.67;13.00;;;21.50;72.40;;;;;;5008362;28;20424;-71
2023/09/12 07:10:20;;;;;;;31.73;13.67;;;21.50;72.90;;;;;;5009611;28;20677;-73
2023/09/12 07:12:46;;;;;;;31.03;13.77;;;21.70;72.70;;;;;;5010705;28;20891;-70
2023/09/12 07:15:12;;;;;;;27.23;13.93;;;21.80;72.10;;;;;;5004115;28;20227;-71
2023/09/12 07:17:38;;;;;;;25.30;14.53;;;21.80;72.10;;;;;;5024360;28;20243;-71
2023/09/12 07:20:04;;;;;;;25.70;14.10;;;21.90;71.70;;;;;;5003869;28;20442;-72
2023/09/12 07:22:30;;;;;;;22.30;15.20;;;21.90;71.70;;;;;;5009785;28;20190;-71
2023/09/12 07:24:59;;;;;;;28.37;15.80;;;21.80;71.80;;;;;;5005201;28;20471;-70
2023/09/12 07:27:24;;;;;;;27.73;14.27;;;21.80;72.10;;;;;;5008187;28;20186;-70
2023/09/12 07:29:50;;;;;;;23.10;14.50;;;21.80;72.10;;;;;;5009949;28;20833;-71
2023/09/12 07:32:16;;;;;;;24.57;14.23;;;21.80;72.00;;;;;;5010526;28;20194;-72
2023/09/12 07:34:45;;;;;;;22.63;13.03;;;21.90;72.00;;;;;;5007836;28;20721;-71
2023/09/12 07:37:10;;;;;;;23.40;13.43;;;21.90;72.10;;;;;;5007434;28;20270;-71
2023/09/12 07:39:36;;;;;;;21.30;12.53;;;22.10;71.30;;;;;;5011030;28;20432;-71
2023/09/12 07:42:02;;;;;;;24.23;13.90;;;22.20;71.40;;;;;;5011202;28;20563;-71
2023/09/12 07:44:29;;;;;;;33.83;14.33;;;22.30;70.80;;;;;;5009541;28;20474;-70
2023/09/12 07:46:54;;;;;;;21.77;13.40;;;22.40;71.00;;;;;;5008260;28;20469;-71
2023/09/12 07:49:20;;;;;;;23.93;12.70;;;22.60;70.50;;;;;;5006017;28;20928;-69
2023/09/12 07:51:45;;;;;;;22.27;12.87;;;22.80;70.20;;;;;;5008704;28;20270;-71
2023/09/12 07:54:11;;;;;;;22.27;13.97;;;22.90;69.70;;;;;;5008659;28;20206;-70
2023/09/12 07:56:36;;;;;;;20.33;12.27;;;23.10;69.20;;;;;;5013265;28;20224;-72
2023/09/12 07:59:03;;;;;;;22.13;13.07;;;23.30;68.50;;;;;;5014991;28;20229;-70
2023/09/12 08:01:28;;;;;;;21.43;12.80;;;23.60;67.70;;;;;;5016093;28;20613;-71
2023/09/12 08:03:54;;;;;;;16.00;11.30;;;23.70;67.50;;;;;;5010178;28;20416;-72
2023/09/12 08:06:20;;;;;;;22.67;13.80;;;24.00;66.90;;;;;;5012854;28;20237;-71
2023/09/12 08:08:45;;;;;;;20.07;12.70;;;24.20;66.30;;;;;;5019450;28;20243;-72
2023/09/12 08:11:11;;;;;;;22.40;13.30;;;24.50;65.40;;;;;;5016781;28;20244;-72
2023/09/12 08:13:36;;;;;;;20.07;12.70;;;24.50;65.10;;;;;;5013528;28;20195;-70
2023/09/12 08:16:02;;;;;;;23.90;13.27;;;24.50;65.30;;;;;;5004860;28;20267;-71
2023/09/12 08:18:31;;;;;;;23.30;12.03;;;24.60;65.00;;;;;;5013290;28;20969;-71
2023/09/12 08:20:57;;;;;;;29.37;13.50;;;24.60;65.00;;;;;;5012655;28;20550;-69
2023/09/12 08:23:22;;;;;;;30.47;14.90;;;24.60;64.50;;;;;;5007470;28;20425;-70
2023/09/12 08:25:48;;;;;;;23.33;13.90;;;24.60;64.70;;;;;;5003134;28;20490;-70
2023/09/12 08:28:14;;;;;;;22.43;13.03;;;24.50;64.80;;;;;;5010974;28;20189;-69
2023/09/12 08:30:40;;;;;;;20.57;12.87;;;24.50;64.80;;;;;;5011069;28;20458;-69
2023/09/12 08:33:06;;;;;;;25.93;14.00;;;24.40;65.40;;;;;;5012591;28;20193;-72
2023/09/12 08:35:32;;;;;;;24.67;13.90;;;24.30;65.30;;;;;;5006073;28;20299;-70
2023/09/12 08:37:58;;;;;;;24.60;13.80;;;24.30;65.60;;;;;;5012117;28;20421;-71
2023/09/12 08:40:23;;;;;;;21.53;14.00;;;24.40;65.70;;;;;;5014283;28;20239;-69
2023/09/12 08:42:51;;;;;;;24.27;13.73;;;24.40;65.40;;;;;;5013415;28;20179;-71
2023/09/12 08:45:18;;;;;;;24.60;13.00;;;24.60;65.40;;;;;;5007364;28;20204;-71
2023/09/12 08:47:46;;;;;;;19.67;12.43;;;24.60;65.30;;;;;;5012774;28;20458;-71
2023/09/12 08:50:13;;;;;;;19.73;13.90;;;24.80;65.30;;;;;;5014470;28;20418;-72
2023/09/12 08:52:44;;;;;;;21.27;12.30;;;24.80;64.50;;;;;;5013228;28;20921;-71
2023/09/12 08:55:11;;;;;;;19.17;12.60;;;24.70;64.70;;;;;;5008237;28;20466;-71
2023/09/12 08:57:39;;;;;;;24.60;12.73;;;25.00;64.20;;;;;;5011620;28;20474;-71
2023/09/12 09:00:06;;;;;;;20.90;12.77;;;25.10;64.20;;;;;;5010153;28;20965;-71
2023/09/12 09:02:42;;;;;;;20.50;12.80;;;25.10;63.80;;;;;;5013086;28;20434;-71
2023/09/12 09:05:09;;;;;;;20.40;11.90;;;25.20;63.80;;;;;;5007308;28;20493;-71
2023/09/12 09:07:36;;;;;;;17.80;12.13;;;25.20;63.80;;;;;;5011575;28;20529;-72
2023/09/12 09:10:05;;;;;;;21.70;11.83;;;25.20;63.80;;;;;;5012981;28;20518;-72
2023/09/12 09:12:31;;;;;;;18.10;12.33;;;25.30;63.80;;;;;;5013380;28;20432;-70
2023/09/12 09:14:57;;;;;;;21.60;13.57;;;25.30;63.80;;;;;;5010352;28;20458;-70
2023/09/12 09:17:23;;;;;;;20.10;13.00;;;25.40;63.70;;;;;;5013026;28;20856;-71
2023/09/12 09:19:49;;;;;;;24.30;14.00;;;25.50;63.70;;;;;;5015953;28;20195;-70
2023/09/12 09:22:14;;;;;;;23.83;12.27;;;25.60;63.50;;;;;;5018942;28;20455;-70
2023/09/12 09:24:40;;;;;;;26.87;13.00;;;25.70;63.40;;;;;;5018537;28;20191;-70
2023/09/12 09:27:06;;;;;;;28.10;12.70;;;25.80;63.20;;;;;;5013763;28;20265;-71
2023/09/12 09:29:33;;;;;;;23.63;13.80;;;25.90;63.10;;;;;;5021403;28;20700;-71
2023/09/12 09:32:05;;;;;;;18.17;12.77;;;25.90;63.10;;;;;;5015432;28;20193;-72
2023/09/12 09:34:31;;;;;;;20.50;13.10;;;26.00;62.80;;;;;;5015512;28;20435;-72
2023/09/12 09:36:58;;;;;;;18.80;13.40;;;26.00;62.80;;;;;;5005350;28;20550;-72
2023/09/12 09:39:25;;;;;;;25.47;13.10;;;26.10;62.80;;;;;;5011478;28;20436;-71
2023/09/12 09:41:56;;;;;;;24.33;13.30;;;26.20;62.60;;;;;;5012013;28;20780;-71
2023/09/12 09:44:23;;;;;;;20.23;12.20;;;26.30;62.50;;;;;;5007685;28;20433;-71
2023/09/12 09:47:00;;;;;;;24.27;13.50;;;26.50;62.20;;;;;;5006573;28;20844;-71
2023/09/12 09:49:26;;;;;;;17.93;12.80;;;26.60;62.00;;;;;;5008147;28;20432;-71
2023/09/12 09:51:55;;;;;;;21.23;12.00;;;26.60;61.90;;;;;;5012151;28;20428;-72
2023/09/12 09:54:24;;;;;;;23.73;14.93;;;26.50;62.20;;;;;;5011398;28;20556;-71
2023/09/12 09:56:55;;;;;;;24.47;13.77;;;26.70;62.00;;;;;;5005223;28;20510;-71
2023/09/12 09:59:23;;;;;;;18.87;12.57;;;26.80;61.90;;;;;;5011785;28;20455;-72
2023/09/12 10:01:51;;;;;;;25.77;14.83;;;26.90;61.60;;;;;;5010811;28;20479;-72
2023/09/12 10:04:18;;;;;;;17.63;12.63;;;27.00;61.50;;;;;;5006738;28;20432;-72
2023/09/12 10:06:45;;;;;;;20.03;12.80;;;27.10;61.30;;;;;;5008733;28;20823;-72
2023/09/12 10:09:13;;;;;;;22.77;14.70;;;27.20;60.90;;;;;;5011653;28;20889;-72
2023/09/12 10:11:43;;;;;;;28.17;14.60;;;27.30;60.40;;;;;;5007200;28;20421;-70
2023/09/12 10:14:11;;;;;;;23.97;12.97;;;27.40;60.10;;;;;;5007353;28;20436;-70
2023/09/12 10:16:46;;;;;;;25.80;13.53;;;27.40;60.30;;;;;;5001042;28;20504;-70
2023/09/12 10:19:28;;;;;;;27.10;12.73;;;27.50;59.90;;;;;;5001544;28;20427;-71
2023/09/12 10:22:21;;;;;;;23.70;12.90;;;27.50;59.70;;;;;;5008131;28;20447;-71
2023/09/12 10:24:49;;;;;;;22.53;13.73;;;27.60;59.70;;;;;;5009762;28;20483;-69
2023/09/12 10:27:15;;;;;;;17.33;12.10;;;27.80;59.60;;;;;;5005329;28;20423;-70
2023/09/12 10:29:41;;;;;;;21.97;13.10;;;27.90;59.20;;;;;;5001392;28;20417;-71
2023/09/12 10:32:07;;;;;;;20.87;13.50;;;28.00;59.30;;;;;;5011024;28;20508;-70
2023/09/12 10:34:34;;;;;;;23.20;14.50;;;28.10;59.60;;;;;;5005167;28;20270;-71
2023/09/12 10:37:05;;;;;;;19.20;12.80;;;28.20;59.60;;;;;;5008492;28;20476;-70
2023/09/12 10:39:32;;;;;;;20.60;13.23;;;28.40;59.50;;;;;;5009595;28;20440;-70
2023/09/12 10:42:04;;;;;;;21.60;13.20;;;28.60;59.50;;;;;;5012372;28;21261;-71
2023/09/12 10:44:31;;;;;;;22.57;12.30;;;28.90;58.90;;;;;;5012179;28;20800;-71
2023/09/12 10:46:58;;;;;;;17.70;12.70;;;29.30;58.00;;;;;;5009698;28;20446;-70
2023/09/12 10:49:25;;;;;;;25.90;11.77;;;29.60;57.70;;;;;;5011325;28;20475;-71
2023/09/12 10:51:51;;;;;;;21.27;12.80;;;29.90;56.80;;;;;;5010949;28;20530;-71
2023/09/12 10:54:26;;;;;;;19.70;11.80;;;30.30;55.70;;;;;;5011874;28;20421;-70
2023/09/12 10:57:07;;;;;;;18.23;12.77;;;30.40;55.40;;;;;;5009557;28;20217;-71
2023/09/12 10:59:35;;;;;;;19.30;12.17;;;30.70;54.80;;;;;;5010841;28;20519;-72
2023/09/12 11:02:31;;;;;;;20.47;12.50;;;31.00;53.80;;;;;;5009937;28;20437;-71
2023/09/12 11:04:59;;;;;;;16.77;11.77;;;31.10;53.80;;;;;;5003594;28;21047;-73
2023/09/12 11:07:40;;;;;;;17.37;11.50;;;31.50;53.60;;;;;;5010322;28;20515;-73
2023/09/12 11:10:27;;;;;;;18.80;12.30;;;31.70;53.20;;;;;;5008543;28;20435;-72
2023/09/12 11:12:54;;;;;;;22.07;12.37;;;31.80;52.20;;;;;;5010687;28;20452;-71
2023/09/12 11:15:22;;;;;;;15.53;11.83;;;31.80;51.80;;;;;;4999143;28;20937;-71
2023/09/12 11:18:08;;;;;;;15.00;12.13;;;31.80;52.00;;;;;;5009591;28;20503;-71
2023/09/12 11:21:00;;;;;;;18.33;12.30;;;31.90;51.00;;;;;;5009946;28;21046;-70
2023/09/12 11:23:26;;;;;;;23.20;12.60;;;32.00;51.00;;;;;;5005931;28;20413;-71
2023/09/12 11:26:06;;;;;;;19.57;11.63;;;31.80;51.70;;;;;;5003393;28;20472;-72
2023/09/12 11:28:32;;;;;;;19.20;12.53;;;32.20;51.70;;;;;;5008381;28;20193;-71
2023/09/12 11:30:58;;;;;;;19.73;12.77;;;32.10;51.40;;;;;;5013408;28;20730;-73
2023/09/12 11:33:27;;;;;;;15.70;12.40;;;32.00;51.60;;;;;;5013376;28;20456;-71
2023/09/12 11:36:03;;;;;;;18.90;11.50;;;32.40;51.30;;;;;;5006550;28;20561;-70
2023/09/12 11:38:30;;;;;;;20.67;11.80;;;32.70;50.50;;;;;;5014947;28;20976;-71
2023/09/12 11:40:57;;;;;;;20.70;12.27;;;32.30;50.20;;;;;;5013991;28;20452;-70
2023/09/12 11:43:25;;;;;;;18.20;11.80;;;32.20;50.90;;;;;;5014087;28;20413;-72
2023/09/12 11:45:51;;;;;;;22.37;12.50;;;32.10;51.00;;;;;;5009920;28;20457;-72
2023/09/12 11:48:18;;;;;;;18.97;12.47;;;32.20;50.70;;;;;;5013967;28;20417;-71
2023/09/12 11:50:55;;;;;;;19.67;11.63;;;32.40;50.50;;;;;;5013743;28;20436;-71
2023/09/12 11:53:26;;;;;;;21.10;12.30;;;32.20;50.30;;;;;;5012267;28;21015;-71
2023/09/12 11:55:58;;;;;;;16.23;11.33;;;32.00;50.30;;;;;;5010612;28;20509;-73
2023/09/12 11:58:25;;;;;;;18.47;11.10;;;31.90;50.70;;;;;;5014021;28;20492;-70
2023/09/12 12:00:53;;;;;;;17.13;11.23;;;32.10;50.20;;;;;;5014164;28;20421;-73
2023/09/12 12:03:21;;;;;;;17.07;12.00;;;32.20;49.90;;;;;;5014447;28;20943;-72
2023/09/12 12:05:47;;;;;;;15.73;11.23;;;32.40;49.30;;;;;;5011995;28;20464;-70
2023/09/12 12:08:15;;;;;;;18.03;11.30;;;32.00;50.10;;;;;;5014401;28;20483;-72
2023/09/12 12:10:41;;;;;;;17.27;12.10;;;31.80;50.70;;;;;;5013822;28;20436;-71
2023/09/12 12:13:30;;;;;;;23.13;11.80;;;32.00;50.30;;;;;;5024566;28;20425;-72
2023/09/12 12:15:56;;;;;;;17.37;12.30;;;32.40;49.70;;;;;;5011054;28;20607;-72
2023/09/12 12:18:22;;;;;;;17.70;11.13;;;32.80;49.30;;;;;;5016650;28;20432;-74
2023/09/12 12:20:48;;;;;;;18.93;12.23;;;33.30;48.10;;;;;;5016850;28;20947;-73
2023/09/12 12:23:14;;;;;;;19.30;11.23;;;33.60;46.90;;;;;;5016409;28;20186;-72
2023/09/12 12:25:40;;;;;;;17.07;11.43;;;33.50;46.70;;;;;;5008894;28;20248;-73
2023/09/12 12:28:05;;;;;;;21.97;13.00;;;33.30;46.60;;;;;;5017051;28;20201;-72